Flight Track Log - Related Links

Times and Time Zones

All times are in EDT time to prevent confusion due to time zone crossing. See the N472ER flight status page for this flight to view local times or setup timezone preferences in your user account.

Time Position Orientation Groundspeed Altitude Reporting Facility
EDT Latitude Longitude Course Direction KTS MPH feet Rate Location/Type
08:04AM 29.0947 -81.0628 141° Southeast 81 93 3,500  Level Jacksonville Center
08:05AM 29.0800 -81.0489 140° Southeast 74 85 4,100 621 Climbing Jacksonville Center
08:06AM 29.0611 -81.0397 157° South 76 87 4,700 639 Climbing Jacksonville Center
08:07AM 29.0400 -81.0186 139° Southeast 84 97 5,400 335 Climbing Jacksonville Center
08:08AM 29.0000 -81.0000 158° South 109 125 5,600 77 Climbing Orlando TRACON
08:09AM 28.9833 -80.9833 139° Southeast 117 135 5,600 -99 Level Orlando TRACON
08:10AM 28.9500 -80.9667 156° South 116 133 5,400  Descending Orlando TRACON
08:11AM 28.9167 -80.9500 156° South 99 114 5,600 100 Climbing Orlando TRACON
08:12AM 28.8833 -80.9333 156° South 113 130 5,600  Level Orlando TRACON
08:13AM 28.8667 -80.9333 180° South 110 127 5,600  Level Orlando TRACON
08:14AM 28.8333 -80.9167 156° South 110 127 5,600  Level Orlando TRACON
08:15AM 28.8000 -80.9167 180° South 112 129 5,600 -50 Level Orlando TRACON
08:16AM 28.7667 -80.9000 156° South 113 130 5,500 -50 Descending Orlando TRACON
08:17AM 28.7500 -80.8833 139° Southeast 111 128 5,500  Level Orlando TRACON
08:18AM 28.7167 -80.8833 180° South 110 127 5,500  Level Orlando TRACON
08:19AM 28.6833 -80.8833 180° South 108 124 5,500 48 Level Orlando TRACON
08:20AM 28.6500 -80.8667 156° South 106 122 5,600 55 Climbing Orlando TRACON
08:21AM 28.6333 -80.8667 180° South 106 122 5,600  Level Orlando TRACON
08:22AM 28.6000 -80.8500 156° South 110 127 5,600  Level Orlando TRACON
08:23AM 28.5667 -80.8333 156° South 111 128 5,600  Level Orlando TRACON
08:24AM 28.5333 -80.8167 156° South 110 127 5,600  Level Orlando TRACON
08:25AM 28.5167 -80.8167 180° South 111 128 5,600  Level Orlando TRACON
08:26AM 28.4833 -80.8000 156° South 109 125 5,600  Level Orlando TRACON
08:27AM 28.4667 -80.7833 139° Southeast 110 127 5,600  Level Orlando TRACON
08:28AM 28.4333 -80.7667 156° South 110 127 5,600 -50 Level Orlando TRACON
08:29AM 28.4000 -80.7500 156° South 111 128 5,500  Descending Orlando TRACON
08:30AM 28.3833 -80.7500 180° South 107 123 5,600 50 Climbing Orlando TRACON
08:31AM 28.3500 -80.7333 156° South 109 125 5,600  Level Orlando TRACON
08:32AM 28.3167 -80.7167 156° South 110 127 5,600  Level Orlando TRACON
08:33AM 28.2833 -80.7000 156° South 114 131 5,600 -50 Level Orlando TRACON
08:34AM 28.2667 -80.6833 139° Southeast 112 129 5,500 -50 Descending Orlando TRACON
08:35AM 28.2333 -80.6667 156° South 113 130 5,500 48 Level Orlando TRACON
08:36AM 28.2000 -80.6500 156° South 110 127 5,600 50 Climbing Orlando TRACON
08:37AM 28.1667 -80.6333 156° South 113 130 5,600  Level Orlando TRACON
08:39AM 28.1264 -80.6164 160° South 116 133 5,600  Level Miami Center
08:40AM 28.0994 -80.6014 154° Southeast 116 133 5,600  Level Miami Center
08:41AM 28.0686 -80.5911 164° South 111 128 5,600  Level Miami Center
08:42AM 28.0436 -80.5831 164° South 106 122 5,600 50 Level Miami Center
08:43AM 28.0125 -80.5775 171° South 106 122 5,700  Climbing Miami Center
08:44AM 27.9772 -80.5669 165° South 106 122 5,600 -100 Descending Miami Center
08:45AM 27.9486 -80.5494 152° Southeast 106 122 5,500  Descending Miami Center
08:46AM 27.9239 -80.5369 156° South 111 128 5,600  Climbing Miami Center
08:47AM 27.8928 -80.5217 157° South 111 128 5,500 -350 Descending Miami Center
08:48AM 27.8619 -80.5044 154° Southeast 111 128 4,900 -650 Descending Miami Center
08:49AM 27.8353 -80.4917 157° South 111 128 4,200 -44 Descending Miami Center
10:02AM 27.8294 -80.4728 109° East 121 139 1,600 -36 Descending Miami Center
10:03AM 27.8519 -80.4853 334° Northwest 99 114 1,500  Descending Miami Center
10:05AM 27.9000 -80.5000 345° North 131 151 1,600 38 Climbing Orlando TRACON
10:06AM 27.9167 -80.5167 319° Northwest 98 113 1,600  Level Orlando TRACON
10:07AM 27.9500 -80.5167 360° North 104 120 1,600 -99 Level Orlando TRACON
10:08AM 27.9667 -80.5333 319° Northwest 111 128 1,400 -50 Descending Orlando TRACON
10:09AM 28.0000 -80.5667 319° Northwest 102 117 1,500 53 Climbing Orlando TRACON
10:10AM 28.0167 -80.5833 319° Northwest 106 122 1,500  Level Orlando TRACON
10:11AM 28.0500 -80.6000 336° Northwest 111 128 1,500 -189 Level Orlando TRACON
10:12AM 28.0667 -80.6167 319° Northwest 104 120 1,100 -298 Descending Orlando TRACON
10:13AM 28.0833 -80.6333 319° Northwest 101 116 900 -100 Descending Orlando TRACON
10:14AM 28.1000 -80.6667 300° West 95 109 900 -209 Level Orlando TRACON
10:15AM 28.1000 -80.6667 300° West 85 98 500 -436 Descending Orlando TRACON

Login

Don't have an account? Register now (free) for customized features, flight alerts, and more!